sensor_id;sensor_type;location;lat;lon;timestamp;P1;durP1;ratioP1;P2;durP2;ratioP2
49722;SDS011;43484;43.608;1.458;2023-05-20T00:00:44;12.48;;;3.83;;
49722;SDS011;43484;43.608;1.458;2023-05-20T00:03:14;13.40;;;3.63;;
49722;SDS011;43484;43.608;1.458;2023-05-20T00:05:41;9.77;;;3.88;;
49722;SDS011;43484;43.608;1.458;2023-05-20T00:08:08;8.48;;;3.50;;
49722;SDS011;43484;43.608;1.458;2023-05-20T00:10:36;10.63;;;4.25;;
49722;SDS011;43484;43.608;1.458;2023-05-20T00:13:03;11.23;;;3.65;;
49722;SDS011;43484;43.608;1.458;2023-05-20T00:15:32;8.27;;;3.67;;
49722;SDS011;43484;43.608;1.458;2023-05-20T00:18:00;11.48;;;3.97;;
49722;SDS011;43484;43.608;1.458;2023-05-20T00:20:27;10.70;;;3.60;;
49722;SDS011;43484;43.608;1.458;2023-05-20T00:22:54;10.57;;;4.28;;
49722;SDS011;43484;43.608;1.458;2023-05-20T00:25:20;12.20;;;4.28;;
49722;SDS011;43484;43.608;1.458;2023-05-20T00:27:47;13.93;;;4.32;;
49722;SDS011;43484;43.608;1.458;2023-05-20T00:30:14;12.55;;;3.80;;
49722;SDS011;43484;43.608;1.458;2023-05-20T00:32:40;8.35;;;4.35;;
49722;SDS011;43484;43.608;1.458;2023-05-20T00:35:07;14.45;;;3.90;;
49722;SDS011;43484;43.608;1.458;2023-05-20T00:37:34;13.25;;;3.83;;
49722;SDS011;43484;43.608;1.458;2023-05-20T00:40:01;14.15;;;4.32;;
49722;SDS011;43484;43.608;1.458;2023-05-20T00:42:28;9.70;;;3.70;;
49722;SDS011;43484;43.608;1.458;2023-05-20T00:44:55;10.15;;;4.07;;
49722;SDS011;43484;43.608;1.458;2023-05-20T00:47:28;10.63;;;4.15;;
49722;SDS011;43484;43.608;1.458;2023-05-20T00:49:58;11.82;;;3.65;;
49722;SDS011;43484;43.608;1.458;2023-05-20T00:52:26;12.25;;;4.50;;
49722;SDS011;43484;43.608;1.458;2023-05-20T00:54:57;10.68;;;3.88;;
49722;SDS011;43484;43.608;1.458;2023-05-20T00:57:25;13.13;;;4.88;;
49722;SDS011;43484;43.608;1.458;2023-05-20T00:59:51;12.30;;;4.43;;
49722;SDS011;43484;43.608;1.458;2023-05-20T01:02:19;7.75;;;3.88;;
49722;SDS011;43484;43.608;1.458;2023-05-20T01:04:46;10.60;;;3.75;;
49722;SDS011;43484;43.608;1.458;2023-05-20T01:07:14;9.80;;;4.18;;
49722;SDS011;43484;43.608;1.458;2023-05-20T01:09:42;11.07;;;4.10;;
49722;SDS011;43484;43.608;1.458;2023-05-20T01:12:17;12.77;;;4.50;;
49722;SDS011;43484;43.608;1.458;2023-05-20T01:15:10;12.93;;;4.00;;
49722;SDS011;43484;43.608;1.458;2023-05-20T01:17:39;11.15;;;4.40;;
49722;SDS011;43484;43.608;1.458;2023-05-20T01:20:10;10.25;;;4.03;;
49722;SDS011;43484;43.608;1.458;2023-05-20T01:22:45;14.80;;;4.68;;
49722;SDS011;43484;43.608;1.458;2023-05-20T01:25:18;8.80;;;3.25;;
49722;SDS011;43484;43.608;1.458;2023-05-20T01:27:46;12.00;;;4.55;;
49722;SDS011;43484;43.608;1.458;2023-05-20T01:30:15;11.80;;;4.00;;
49722;SDS011;43484;43.608;1.458;2023-05-20T01:32:43;17.65;;;4.60;;
49722;SDS011;43484;43.608;1.458;2023-05-20T01:35:19;15.82;;;4.97;;
49722;SDS011;43484;43.608;1.458;2023-05-20T01:37:47;14.02;;;4.15;;
49722;SDS011;43484;43.608;1.458;2023-05-20T01:40:16;14.40;;;4.47;;
49722;SDS011;43484;43.608;1.458;2023-05-20T01:42:43;17.77;;;4.63;;
49722;SDS011;43484;43.608;1.458;2023-05-20T01:45:11;13.70;;;4.50;;
49722;SDS011;43484;43.608;1.458;2023-05-20T01:47:38;12.38;;;4.60;;
49722;SDS011;43484;43.608;1.458;2023-05-20T01:50:06;15.50;;;5.15;;
49722;SDS011;43484;43.608;1.458;2023-05-20T01:52:33;11.75;;;4.53;;
49722;SDS011;43484;43.608;1.458;2023-05-20T01:55:00;14.63;;;5.03;;
49722;SDS011;43484;43.608;1.458;2023-05-20T01:57:27;19.75;;;5.35;;
49722;SDS011;43484;43.608;1.458;2023-05-20T01:59:53;14.27;;;4.22;;
49722;SDS011;43484;43.608;1.458;2023-05-20T02:02:20;12.60;;;4.30;;
49722;SDS011;43484;43.608;1.458;2023-05-20T02:04:47;15.15;;;4.68;;
49722;SDS011;43484;43.608;1.458;2023-05-20T02:07:15;15.20;;;4.47;;
49722;SDS011;43484;43.608;1.458;2023-05-20T02:09:46;11.43;;;4.15;;
49722;SDS011;43484;43.608;1.458;2023-05-20T02:12:13;13.82;;;4.63;;
49722;SDS011;43484;43.608;1.458;2023-05-20T02:14:43;12.18;;;4.13;;
49722;SDS011;43484;43.608;1.458;2023-05-20T02:17:11;13.60;;;4.28;;
49722;SDS011;43484;43.608;1.458;2023-05-20T02:19:41;16.17;;;5.88;;
49722;SDS011;43484;43.608;1.458;2023-05-20T02:22:09;17.02;;;4.35;;
49722;SDS011;43484;43.608;1.458;2023-05-20T02:24:35;16.58;;;4.57;;
49722;SDS011;43484;43.608;1.458;2023-05-20T02:27:02;10.50;;;4.53;;
49722;SDS011;43484;43.608;1.458;2023-05-20T02:29:29;10.02;;;4.70;;
49722;SDS011;43484;43.608;1.458;2023-05-20T02:31:56;16.80;;;5.68;;
49722;SDS011;43484;43.608;1.458;2023-05-20T02:34:23;16.25;;;5.88;;
49722;SDS011;43484;43.608;1.458;2023-05-20T02:36:51;9.43;;;4.10;;
49722;SDS011;43484;43.608;1.458;2023-05-20T02:39:18;18.17;;;4.38;;
49722;SDS011;43484;43.608;1.458;2023-05-20T02:41:45;17.55;;;5.72;;
49722;SDS011;43484;43.608;1.458;2023-05-20T02:44:11;19.20;;;7.93;;
49722;SDS011;43484;43.608;1.458;2023-05-20T02:46:38;19.48;;;6.78;;
49722;SDS011;43484;43.608;1.458;2023-05-20T02:49:05;16.15;;;8.05;;
49722;SDS011;43484;43.608;1.458;2023-05-20T02:51:32;27.73;;;13.90;;
49722;SDS011;43484;43.608;1.458;2023-05-20T02:53:58;43.67;;;22.77;;
49722;SDS011;43484;43.608;1.458;2023-05-20T02:56:25;39.60;;;16.20;;
49722;SDS011;43484;43.608;1.458;2023-05-20T02:58:52;24.33;;;8.82;;
49722;SDS011;43484;43.608;1.458;2023-05-20T03:01:18;14.70;;;5.78;;
49722;SDS011;43484;43.608;1.458;2023-05-20T03:03:45;16.27;;;5.47;;
49722;SDS011;43484;43.608;1.458;2023-05-20T03:06:12;19.58;;;5.05;;
49722;SDS011;43484;43.608;1.458;2023-05-20T03:08:38;10.75;;;4.72;;
49722;SDS011;43484;43.608;1.458;2023-05-20T03:11:08;11.40;;;5.00;;
49722;SDS011;43484;43.608;1.458;2023-05-20T03:13:34;13.57;;;4.72;;
49722;SDS011;43484;43.608;1.458;2023-05-20T03:16:01;13.02;;;5.32;;
49722;SDS011;43484;43.608;1.458;2023-05-20T03:18:28;19.88;;;6.18;;
49722;SDS011;43484;43.608;1.458;2023-05-20T03:20:55;17.15;;;5.45;;
49722;SDS011;43484;43.608;1.458;2023-05-20T03:23:21;15.60;;;5.18;;
49722;SDS011;43484;43.608;1.458;2023-05-20T03:25:48;14.00;;;5.15;;
49722;SDS011;43484;43.608;1.458;2023-05-20T03:28:14;18.35;;;5.43;;
49722;SDS011;43484;43.608;1.458;2023-05-20T03:30:41;23.77;;;5.45;;
49722;SDS011;43484;43.608;1.458;2023-05-20T03:33:08;17.05;;;5.90;;
49722;SDS011;43484;43.608;1.458;2023-05-20T03:35:35;13.13;;;6.10;;
49722;SDS011;43484;43.608;1.458;2023-05-20T03:38:02;15.10;;;5.43;;
49722;SDS011;43484;43.608;1.458;2023-05-20T03:40:29;14.80;;;5.65;;
49722;SDS011;43484;43.608;1.458;2023-05-20T03:42:56;15.15;;;6.18;;
49722;SDS011;43484;43.608;1.458;2023-05-20T03:45:22;16.13;;;5.40;;
49722;SDS011;43484;43.608;1.458;2023-05-20T03:47:49;15.63;;;6.03;;
49722;SDS011;43484;43.608;1.458;2023-05-20T03:50:17;16.73;;;5.85;;
49722;SDS011;43484;43.608;1.458;2023-05-20T03:52:43;19.88;;;6.03;;
49722;SDS011;43484;43.608;1.458;2023-05-20T03:55:10;13.25;;;5.95;;
49722;SDS011;43484;43.608;1.458;2023-05-20T03:57:37;10.32;;;6.03;;
49722;SDS011;43484;43.608;1.458;2023-05-20T04:00:03;21.35;;;5.93;;
49722;SDS011;43484;43.608;1.458;2023-05-20T04:02:37;13.38;;;6.07;;
49722;SDS011;43484;43.608;1.458;2023-05-20T04:05:04;13.70;;;5.82;;
49722;SDS011;43484;43.608;1.458;2023-05-20T04:07:33;19.65;;;7.05;;
49722;SDS011;43484;43.608;1.458;2023-05-20T04:10:01;16.02;;;6.13;;
49722;SDS011;43484;43.608;1.458;2023-05-20T04:12:28;15.65;;;5.60;;
49722;SDS011;43484;43.608;1.458;2023-05-20T04:14:57;13.38;;;5.40;;
49722;SDS011;43484;43.608;1.458;2023-05-20T04:17:27;15.18;;;5.95;;
49722;SDS011;43484;43.608;1.458;2023-05-20T04:19:57;18.50;;;6.25;;
49722;SDS011;43484;43.608;1.458;2023-05-20T04:22:27;20.73;;;6.63;;
49722;SDS011;43484;43.608;1.458;2023-05-20T04:24:53;13.57;;;6.07;;
49722;SDS011;43484;43.608;1.458;2023-05-20T04:27:21;12.60;;;6.10;;
49722;SDS011;43484;43.608;1.458;2023-05-20T04:29:48;18.67;;;6.03;;
49722;SDS011;43484;43.608;1.458;2023-05-20T04:32:16;21.40;;;6.43;;
49722;SDS011;43484;43.608;1.458;2023-05-20T04:34:44;20.70;;;6.25;;
49722;SDS011;43484;43.608;1.458;2023-05-20T04:37:11;21.52;;;6.55;;
49722;SDS011;43484;43.608;1.458;2023-05-20T04:39:39;24.33;;;6.05;;
49722;SDS011;43484;43.608;1.458;2023-05-20T04:42:05;12.45;;;6.53;;
49722;SDS011;43484;43.608;1.458;2023-05-20T04:44:32;19.80;;;6.68;;
49722;SDS011;43484;43.608;1.458;2023-05-20T04:46:59;18.27;;;6.28;;
49722;SDS011;43484;43.608;1.458;2023-05-20T04:49:26;16.58;;;5.93;;
49722;SDS011;43484;43.608;1.458;2023-05-20T04:51:55;22.23;;;6.10;;
49722;SDS011;43484;43.608;1.458;2023-05-20T04:54:21;15.63;;;5.75;;
49722;SDS011;43484;43.608;1.458;2023-05-20T04:56:48;10.52;;;5.88;;
49722;SDS011;43484;43.608;1.458;2023-05-20T04:59:16;18.30;;;7.07;;
49722;SDS011;43484;43.608;1.458;2023-05-20T05:01:43;20.13;;;6.85;;
49722;SDS011;43484;43.608;1.458;2023-05-20T05:04:10;22.77;;;5.95;;
49722;SDS011;43484;43.608;1.458;2023-05-20T05:06:37;17.48;;;5.85;;
49722;SDS011;43484;43.608;1.458;2023-05-20T05:09:03;23.40;;;6.22;;
49722;SDS011;43484;43.608;1.458;2023-05-20T05:11:30;17.98;;;6.22;;
49722;SDS011;43484;43.608;1.458;2023-05-20T05:13:57;18.45;;;6.68;;
49722;SDS011;43484;43.608;1.458;2023-05-20T05:16:23;19.65;;;6.55;;
49722;SDS011;43484;43.608;1.458;2023-05-20T05:18:50;15.20;;;6.30;;
49722;SDS011;43484;43.608;1.458;2023-05-20T05:21:17;23.30;;;6.20;;
49722;SDS011;43484;43.608;1.458;2023-05-20T05:23:44;15.45;;;6.22;;
49722;SDS011;43484;43.608;1.458;2023-05-20T05:26:10;15.20;;;7.00;;
49722;SDS011;43484;43.608;1.458;2023-05-20T05:28:37;13.82;;;6.90;;
49722;SDS011;43484;43.608;1.458;2023-05-20T05:31:04;15.93;;;6.20;;
49722;SDS011;43484;43.608;1.458;2023-05-20T05:33:32;17.88;;;6.85;;
49722;SDS011;43484;43.608;1.458;2023-05-20T05:35:58;16.23;;;6.63;;
49722;SDS011;43484;43.608;1.458;2023-05-20T05:38:26;25.63;;;6.78;;
49722;SDS011;43484;43.608;1.458;2023-05-20T05:40:53;15.90;;;6.03;;
49722;SDS011;43484;43.608;1.458;2023-05-20T05:43:20;16.73;;;6.28;;
49722;SDS011;43484;43.608;1.458;2023-05-20T05:45:46;18.70;;;6.53;;
49722;SDS011;43484;43.608;1.458;2023-05-20T05:48:13;17.80;;;6.25;;
49722;SDS011;43484;43.608;1.458;2023-05-20T05:50:42;16.05;;;6.07;;
49722;SDS011;43484;43.608;1.458;2023-05-20T05:53:10;22.58;;;6.95;;
49722;SDS011;43484;43.608;1.458;2023-05-20T05:55:37;16.17;;;6.72;;
49722;SDS011;43484;43.608;1.458;2023-05-20T05:58:04;18.52;;;6.72;;
49722;SDS011;43484;43.608;1.458;2023-05-20T06:00:31;14.15;;;5.90;;
49722;SDS011;43484;43.608;1.458;2023-05-20T06:02:57;14.40;;;6.55;;
49722;SDS011;43484;43.608;1.458;2023-05-20T06:05:24;15.57;;;5.47;;
49722;SDS011;43484;43.608;1.458;2023-05-20T06:07:54;12.82;;;5.70;;
49722;SDS011;43484;43.608;1.458;2023-05-20T06:10:21;15.43;;;6.78;;
49722;SDS011;43484;43.608;1.458;2023-05-20T06:12:48;20.73;;;6.05;;
49722;SDS011;43484;43.608;1.458;2023-05-20T06:15:14;12.82;;;6.88;;
49722;SDS011;43484;43.608;1.458;2023-05-20T06:17:41;17.13;;;6.60;;
49722;SDS011;43484;43.608;1.458;2023-05-20T06:20:08;12.48;;;5.55;;
49722;SDS011;43484;43.608;1.458;2023-05-20T06:22:35;14.27;;;5.90;;
49722;SDS011;43484;43.608;1.458;2023-05-20T06:25:02;13.30;;;6.38;;
49722;SDS011;43484;43.608;1.458;2023-05-20T06:27:29;19.15;;;7.07;;
49722;SDS011;43484;43.608;1.458;2023-05-20T06:29:55;16.30;;;5.72;;
49722;SDS011;43484;43.608;1.458;2023-05-20T06:32:22;12.68;;;5.05;;
49722;SDS011;43484;43.608;1.458;2023-05-20T06:34:49;29.70;;;7.13;;
49722;SDS011;43484;43.608;1.458;2023-05-20T06:37:16;15.18;;;6.43;;
49722;SDS011;43484;43.608;1.458;2023-05-20T06:39:43;12.85;;;5.47;;
49722;SDS011;43484;43.608;1.458;2023-05-20T06:42:10;18.17;;;7.22;;
49722;SDS011;43484;43.608;1.458;2023-05-20T06:44:36;12.90;;;5.93;;
49722;SDS011;43484;43.608;1.458;2023-05-20T06:47:03;15.48;;;5.18;;
49722;SDS011;43484;43.608;1.458;2023-05-20T06:49:30;21.40;;;5.72;;
49722;SDS011;43484;43.608;1.458;2023-05-20T06:51:56;21.63;;;6.00;;
49722;SDS011;43484;43.608;1.458;2023-05-20T06:54:23;16.15;;;5.97;;
49722;SDS011;43484;43.608;1.458;2023-05-20T06:56:50;19.58;;;5.65;;
49722;SDS011;43484;43.608;1.458;2023-05-20T06:59:17;13.65;;;5.75;;
49722;SDS011;43484;43.608;1.458;2023-05-20T07:01:43;14.68;;;6.03;;
49722;SDS011;43484;43.608;1.458;2023-05-20T07:04:10;20.75;;;5.70;;
49722;SDS011;43484;43.608;1.458;2023-05-20T07:06:37;16.33;;;5.20;;
49722;SDS011;43484;43.608;1.458;2023-05-20T07:09:04;13.88;;;5.70;;
49722;SDS011;43484;43.608;1.458;2023-05-20T07:11:30;16.02;;;5.50;;
49722;SDS011;43484;43.608;1.458;2023-05-20T07:13:57;11.13;;;5.38;;
49722;SDS011;43484;43.608;1.458;2023-05-20T07:16:23;14.98;;;5.65;;
49722;SDS011;43484;43.608;1.458;2023-05-20T07:18:51;18.20;;;6.10;;
49722;SDS011;43484;43.608;1.458;2023-05-20T07:21:18;15.15;;;5.03;;
49722;SDS011;43484;43.608;1.458;2023-05-20T07:23:44;13.88;;;4.90;;
49722;SDS011;43484;43.608;1.458;2023-05-20T07:26:11;15.27;;;4.95;;
49722;SDS011;43484;43.608;1.458;2023-05-20T07:28:38;13.00;;;5.18;;
49722;SDS011;43484;43.608;1.458;2023-05-20T07:31:04;18.40;;;4.43;;
49722;SDS011;43484;43.608;1.458;2023-05-20T07:33:31;14.35;;;5.03;;
49722;SDS011;43484;43.608;1.458;2023-05-20T07:35:58;16.63;;;4.63;;
49722;SDS011;43484;43.608;1.458;2023-05-20T07:38:24;15.38;;;5.10;;
49722;SDS011;43484;43.608;1.458;2023-05-20T07:40:51;15.82;;;4.88;;
49722;SDS011;43484;43.608;1.458;2023-05-20T07:43:18;13.05;;;4.57;;
49722;SDS011;43484;43.608;1.458;2023-05-20T07:45:45;12.30;;;4.82;;
49722;SDS011;43484;43.608;1.458;2023-05-20T07:48:12;15.43;;;5.10;;
49722;SDS011;43484;43.608;1.458;2023-05-20T07:50:38;15.25;;;4.65;;
49722;SDS011;43484;43.608;1.458;2023-05-20T07:53:05;10.75;;;4.75;;
49722;SDS011;43484;43.608;1.458;2023-05-20T07:55:32;10.50;;;4.07;;
49722;SDS011;43484;43.608;1.458;2023-05-20T07:58:00;12.02;;;4.28;;
49722;SDS011;43484;43.608;1.458;2023-05-20T08:00:27;12.82;;;5.15;;
49722;SDS011;43484;43.608;1.458;2023-05-20T08:02:54;13.45;;;4.20;;
49722;SDS011;43484;43.608;1.458;2023-05-20T08:05:21;10.32;;;4.05;;
49722;SDS011;43484;43.608;1.458;2023-05-20T08:07:48;9.70;;;5.25;;
49722;SDS011;43484;43.608;1.458;2023-05-20T08:10:14;13.45;;;4.25;;
49722;SDS011;43484;43.608;1.458;2023-05-20T08:12:41;7.88;;;4.25;;
49722;SDS011;43484;43.608;1.458;2023-05-20T08:15:08;10.40;;;4.00;;
49722;SDS011;43484;43.608;1.458;2023-05-20T08:17:34;10.38;;;4.15;;
49722;SDS011;43484;43.608;1.458;2023-05-20T08:20:01;11.73;;;3.95;;
49722;SDS011;43484;43.608;1.458;2023-05-20T08:22:28;11.05;;;4.13;;
49722;SDS011;43484;43.608;1.458;2023-05-20T08:24:55;12.20;;;3.75;;
49722;SDS011;43484;43.608;1.458;2023-05-20T08:27:22;13.93;;;4.10;;
49722;SDS011;43484;43.608;1.458;2023-05-20T08:29:48;11.32;;;3.60;;
49722;SDS011;43484;43.608;1.458;2023-05-20T08:32:15;9.70;;;3.75;;
49722;SDS011;43484;43.608;1.458;2023-05-20T08:34:42;11.90;;;3.67;;
49722;SDS011;43484;43.608;1.458;2023-05-20T08:37:08;10.18;;;3.25;;
49722;SDS011;43484;43.608;1.458;2023-05-20T08:39:35;13.45;;;3.55;;
49722;SDS011;43484;43.608;1.458;2023-05-20T08:42:01;9.52;;;3.20;;
49722;SDS011;43484;43.608;1.458;2023-05-20T08:44:29;9.52;;;3.55;;
49722;SDS011;43484;43.608;1.458;2023-05-20T08:46:56;11.45;;;3.95;;
49722;SDS011;43484;43.608;1.458;2023-05-20T08:49:23;8.07;;;3.78;;
49722;SDS011;43484;43.608;1.458;2023-05-20T08:51:50;13.35;;;4.00;;
49722;SDS011;43484;43.608;1.458;2023-05-20T08:54:16;12.05;;;3.55;;
49722;SDS011;43484;43.608;1.458;2023-05-20T08:56:46;10.75;;;3.53;;
49722;SDS011;43484;43.608;1.458;2023-05-20T08:59:13;13.80;;;3.28;;
49722;SDS011;43484;43.608;1.458;2023-05-20T09:01:40;14.32;;;3.78;;
49722;SDS011;43484;43.608;1.458;2023-05-20T09:04:10;9.93;;;3.60;;
49722;SDS011;43484;43.608;1.458;2023-05-20T09:06:41;9.73;;;3.63;;
49722;SDS011;43484;43.608;1.458;2023-05-20T09:09:12;15.98;;;3.75;;
49722;SDS011;43484;43.608;1.458;2023-05-20T09:11:40;11.23;;;3.40;;
49722;SDS011;43484;43.608;1.458;2023-05-20T09:14:07;11.32;;;3.47;;
49722;SDS011;43484;43.608;1.458;2023-05-20T09:16:34;7.35;;;3.25;;
49722;SDS011;43484;43.608;1.458;2023-05-20T09:19:04;10.77;;;3.83;;
49722;SDS011;43484;43.608;1.458;2023-05-20T09:21:31;8.23;;;3.20;;
49722;SDS011;43484;43.608;1.458;2023-05-20T09:24:00;10.15;;;3.05;;
49722;SDS011;43484;43.608;1.458;2023-05-20T09:26:27;12.63;;;3.20;;
49722;SDS011;43484;43.608;1.458;2023-05-20T09:28:55;14.68;;;5.45;;
49722;SDS011;43484;43.608;1.458;2023-05-20T09:31:26;12.20;;;4.38;;
49722;SDS011;43484;43.608;1.458;2023-05-20T09:33:54;8.75;;;3.08;;
49722;SDS011;43484;43.608;1.458;2023-05-20T09:36:22;6.07;;;3.53;;
49722;SDS011;43484;43.608;1.458;2023-05-20T09:38:51;5.68;;;2.72;;
49722;SDS011;43484;43.608;1.458;2023-05-20T09:41:19;9.88;;;3.00;;
49722;SDS011;43484;43.608;1.458;2023-05-20T09:43:49;10.43;;;3.42;;
49722;SDS011;43484;43.608;1.458;2023-05-20T09:46:18;8.75;;;3.35;;
49722;SDS011;43484;43.608;1.458;2023-05-20T09:48:45;13.95;;;3.15;;
49722;SDS011;43484;43.608;1.458;2023-05-20T09:51:12;10.02;;;3.13;;
49722;SDS011;43484;43.608;1.458;2023-05-20T09:53:39;10.13;;;3.22;;
49722;SDS011;43484;43.608;1.458;2023-05-20T09:56:06;9.57;;;3.13;;
49722;SDS011;43484;43.608;1.458;2023-05-20T09:58:34;8.77;;;3.13;;
49722;SDS011;43484;43.608;1.458;2023-05-20T10:01:02;9.68;;;3.20;;
49722;SDS011;43484;43.608;1.458;2023-05-20T10:03:28;10.32;;;3.30;;
49722;SDS011;43484;43.608;1.458;2023-05-20T10:11:18;9.20;;;3.58;;
49722;SDS011;43484;43.608;1.458;2023-05-20T10:17:00;8.60;;;2.80;;
49722;SDS011;43484;43.608;1.458;2023-05-20T10:19:35;7.05;;;2.17;;
49722;SDS011;43484;43.608;1.458;2023-05-20T10:22:03;11.18;;;2.22;;
49722;SDS011;43484;43.608;1.458;2023-05-20T10:24:35;12.43;;;3.20;;
49722;SDS011;43484;43.608;1.458;2023-05-20T10:27:09;7.18;;;2.30;;
49722;SDS011;43484;43.608;1.458;2023-05-20T10:29:58;8.95;;;2.63;;
49722;SDS011;43484;43.608;1.458;2023-05-20T10:32:33;8.98;;;2.80;;
49722;SDS011;43484;43.608;1.458;2023-05-20T10:35:07;7.38;;;2.63;;
49722;SDS011;43484;43.608;1.458;2023-05-20T10:37:42;7.90;;;2.58;;
49722;SDS011;43484;43.608;1.458;2023-05-20T10:40:10;6.10;;;2.30;;
49722;SDS011;43484;43.608;1.458;2023-05-20T10:42:41;7.30;;;3.65;;
49722;SDS011;43484;43.608;1.458;2023-05-20T10:45:08;10.18;;;3.45;;
49722;SDS011;43484;43.608;1.458;2023-05-20T10:47:35;5.78;;;2.22;;
49722;SDS011;43484;43.608;1.458;2023-05-20T10:50:07;7.35;;;2.88;;
49722;SDS011;43484;43.608;1.458;2023-05-20T10:52:51;8.27;;;3.28;;
49722;SDS011;43484;43.608;1.458;2023-05-20T10:55:18;7.82;;;2.60;;
49722;SDS011;43484;43.608;1.458;2023-05-20T10:57:47;10.25;;;2.58;;
49722;SDS011;43484;43.608;1.458;2023-05-20T11:00:14;9.20;;;2.35;;
49722;SDS011;43484;43.608;1.458;2023-05-20T11:02:41;8.07;;;2.13;;
49722;SDS011;43484;43.608;1.458;2023-05-20T11:05:09;9.07;;;2.00;;
49722;SDS011;43484;43.608;1.458;2023-05-20T11:07:38;6.20;;;1.98;;
49722;SDS011;43484;43.608;1.458;2023-05-20T11:10:06;7.35;;;2.20;;
49722;SDS011;43484;43.608;1.458;2023-05-20T11:12:35;8.02;;;2.17;;
49722;SDS011;43484;43.608;1.458;2023-05-20T11:15:02;11.73;;;2.45;;
49722;SDS011;43484;43.608;1.458;2023-05-20T11:17:29;8.98;;;3.22;;
49722;SDS011;43484;43.608;1.458;2023-05-20T11:19:55;3.78;;;1.70;;
49722;SDS011;43484;43.608;1.458;2023-05-20T11:22:26;9.77;;;2.53;;
49722;SDS011;43484;43.608;1.458;2023-05-20T11:24:52;7.28;;;1.80;;
49722;SDS011;43484;43.608;1.458;2023-05-20T11:27:19;6.43;;;1.83;;
49722;SDS011;43484;43.608;1.458;2023-05-20T11:29:47;10.10;;;2.33;;
49722;SDS011;43484;43.608;1.458;2023-05-20T11:32:18;10.30;;;2.40;;
49722;SDS011;43484;43.608;1.458;2023-05-20T11:34:45;9.38;;;2.25;;
49722;SDS011;43484;43.608;1.458;2023-05-20T11:37:17;6.85;;;2.28;;
49722;SDS011;43484;43.608;1.458;2023-05-20T11:39:45;6.05;;;1.60;;
49722;SDS011;43484;43.608;1.458;2023-05-20T11:42:13;6.40;;;1.73;;
49722;SDS011;43484;43.608;1.458;2023-05-20T11:44:44;4.63;;;1.60;;
49722;SDS011;43484;43.608;1.458;2023-05-20T11:47:11;6.82;;;1.60;;
49722;SDS011;43484;43.608;1.458;2023-05-20T11:49:38;5.97;;;2.05;;
49722;SDS011;43484;43.608;1.458;2023-05-20T11:52:07;10.48;;;1.88;;
49722;SDS011;43484;43.608;1.458;2023-05-20T11:54:34;4.30;;;2.22;;
49722;SDS011;43484;43.608;1.458;2023-05-20T11:57:01;8.85;;;1.95;;
49722;SDS011;43484;43.608;1.458;2023-05-20T11:59:32;4.15;;;1.30;;
49722;SDS011;43484;43.608;1.458;2023-05-20T12:01:59;3.92;;;1.08;;
49722;SDS011;43484;43.608;1.458;2023-05-20T12:04:26;3.80;;;1.00;;
49722;SDS011;43484;43.608;1.458;2023-05-20T12:06:52;4.97;;;1.80;;
49722;SDS011;43484;43.608;1.458;2023-05-20T12:09:20;7.22;;;1.40;;
49722;SDS011;43484;43.608;1.458;2023-05-20T12:11:47;3.75;;;1.20;;
49722;SDS011;43484;43.608;1.458;2023-05-20T12:14:14;7.47;;;1.50;;
49722;SDS011;43484;43.608;1.458;2023-05-20T12:16:41;3.38;;;1.15;;
49722;SDS011;43484;43.608;1.458;2023-05-20T12:19:08;4.75;;;1.80;;
49722;SDS011;43484;43.608;1.458;2023-05-20T12:21:34;8.65;;;1.65;;
49722;SDS011;43484;43.608;1.458;2023-05-20T12:24:01;11.57;;;1.77;;
49722;SDS011;43484;43.608;1.458;2023-05-20T12:26:30;5.03;;;1.40;;
49722;SDS011;43484;43.608;1.458;2023-05-20T12:28:57;4.95;;;1.42;;
49722;SDS011;43484;43.608;1.458;2023-05-20T12:31:24;6.20;;;1.33;;
49722;SDS011;43484;43.608;1.458;2023-05-20T12:33:51;5.63;;;1.60;;
49722;SDS011;43484;43.608;1.458;2023-05-20T12:36:17;5.20;;;1.88;;
49722;SDS011;43484;43.608;1.458;2023-05-20T12:38:45;4.97;;;1.98;;
49722;SDS011;43484;43.608;1.458;2023-05-20T12:41:12;5.15;;;1.42;;
49722;SDS011;43484;43.608;1.458;2023-05-20T12:43:39;4.05;;;1.38;;
49722;SDS011;43484;43.608;1.458;2023-05-20T12:46:06;4.78;;;1.33;;
49722;SDS011;43484;43.608;1.458;2023-05-20T12:48:32;5.55;;;1.63;;
49722;SDS011;43484;43.608;1.458;2023-05-20T12:50:59;4.85;;;1.48;;
49722;SDS011;43484;43.608;1.458;2023-05-20T12:53:26;5.63;;;1.45;;
49722;SDS011;43484;43.608;1.458;2023-05-20T12:55:53;3.85;;;1.48;;
49722;SDS011;43484;43.608;1.458;2023-05-20T12:58:19;4.25;;;1.58;;
49722;SDS011;43484;43.608;1.458;2023-05-20T13:00:46;5.32;;;1.75;;
49722;SDS011;43484;43.608;1.458;2023-05-20T13:03:13;3.33;;;1.40;;
49722;SDS011;43484;43.608;1.458;2023-05-20T13:05:40;4.70;;;1.70;;
49722;SDS011;43484;43.608;1.458;2023-05-20T13:08:07;7.80;;;1.45;;
49722;SDS011;43484;43.608;1.458;2023-05-20T13:10:35;5.88;;;1.70;;
49722;SDS011;43484;43.608;1.458;2023-05-20T13:13:02;3.58;;;1.17;;
49722;SDS011;43484;43.608;1.458;2023-05-20T13:15:29;3.53;;;1.13;;
49722;SDS011;43484;43.608;1.458;2023-05-20T13:17:58;3.67;;;1.00;;
49722;SDS011;43484;43.608;1.458;2023-05-20T13:20:26;2.13;;;0.93;;
49722;SDS011;43484;43.608;1.458;2023-05-20T13:22:54;3.92;;;1.13;;
49722;SDS011;43484;43.608;1.458;2023-05-20T13:25:20;3.85;;;0.80;;
49722;SDS011;43484;43.608;1.458;2023-05-20T13:27:47;2.38;;;1.05;;
49722;SDS011;43484;43.608;1.458;2023-05-20T13:30:13;4.32;;;1.23;;
49722;SDS011;43484;43.608;1.458;2023-05-20T13:32:40;4.78;;;1.25;;
49722;SDS011;43484;43.608;1.458;2023-05-20T13:35:07;4.55;;;1.40;;
49722;SDS011;43484;43.608;1.458;2023-05-20T13:37:34;3.53;;;0.80;;
49722;SDS011;43484;43.608;1.458;2023-05-20T13:40:00;3.47;;;1.45;;
49722;SDS011;43484;43.608;1.458;2023-05-20T13:42:27;5.68;;;1.55;;
49722;SDS011;43484;43.608;1.458;2023-05-20T13:44:53;2.55;;;1.23;;
49722;SDS011;43484;43.608;1.458;2023-05-20T13:47:20;8.02;;;1.35;;
49722;SDS011;43484;43.608;1.458;2023-05-20T13:49:47;9.35;;;1.55;;
49722;SDS011;43484;43.608;1.458;2023-05-20T13:52:14;7.88;;;1.10;;
49722;SDS011;43484;43.608;1.458;2023-05-20T13:54:41;4.68;;;1.10;;
49722;SDS011;43484;43.608;1.458;2023-05-20T13:57:09;4.82;;;1.13;;
49722;SDS011;43484;43.608;1.458;2023-05-20T13:59:36;3.38;;;1.10;;
49722;SDS011;43484;43.608;1.458;2023-05-20T14:02:03;3.15;;;1.40;;
49722;SDS011;43484;43.608;1.458;2023-05-20T14:04:30;2.75;;;1.13;;
49722;SDS011;43484;43.608;1.458;2023-05-20T14:07:02;4.13;;;1.10;;
49722;SDS011;43484;43.608;1.458;2023-05-20T14:09:32;2.05;;;0.95;;
49722;SDS011;43484;43.608;1.458;2023-05-20T14:11:59;7.03;;;1.08;;
49722;SDS011;43484;43.608;1.458;2023-05-20T14:14:26;3.35;;;1.20;;
49722;SDS011;43484;43.608;1.458;2023-05-20T14:16:52;3.08;;;0.95;;
49722;SDS011;43484;43.608;1.458;2023-05-20T14:19:19;4.80;;;0.98;;
49722;SDS011;43484;43.608;1.458;2023-05-20T14:21:46;8.23;;;1.45;;
49722;SDS011;43484;43.608;1.458;2023-05-20T14:24:12;4.28;;;1.00;;
49722;SDS011;43484;43.608;1.458;2023-05-20T14:26:39;4.35;;;1.13;;
49722;SDS011;43484;43.608;1.458;2023-05-20T14:29:06;5.00;;;1.00;;
49722;SDS011;43484;43.608;1.458;2023-05-20T14:31:32;4.47;;;1.10;;
49722;SDS011;43484;43.608;1.458;2023-05-20T14:33:59;3.33;;;1.00;;
49722;SDS011;43484;43.608;1.458;2023-05-20T14:36:25;1.90;;;1.02;;
49722;SDS011;43484;43.608;1.458;2023-05-20T14:38:52;3.33;;;1.05;;
49722;SDS011;43484;43.608;1.458;2023-05-20T14:41:19;4.78;;;1.17;;
49722;SDS011;43484;43.608;1.458;2023-05-20T14:43:47;3.08;;;1.13;;
49722;SDS011;43484;43.608;1.458;2023-05-20T14:46:14;5.93;;;1.30;;
49722;SDS011;43484;43.608;1.458;2023-05-20T14:48:40;3.05;;;1.40;;